createdAt,value
2019-01-11T00:02:03.465Z,60.83
2019-01-11T00:04:31.369Z,65.10
2019-01-11T00:06:59.430Z,64.33
2019-01-11T00:09:27.478Z,62.80
2019-01-11T00:11:56.680Z,66.13
2019-01-11T00:14:27.188Z,68.20
2019-01-11T00:16:55.422Z,64.40
2019-01-11T00:19:23.304Z,66.43
2019-01-11T00:21:51.849Z,65.20
2019-01-11T00:24:19.975Z,63.07
2019-01-11T00:26:47.841Z,65.40
2019-01-11T00:29:15.810Z,65.57
2019-01-11T00:31:43.790Z,67.67
2019-01-11T00:34:13.094Z,67.00
2019-01-11T00:36:41.070Z,68.40
2019-01-11T00:39:08.936Z,69.70
2019-01-11T00:41:36.951Z,69.53
2019-01-11T00:44:04.954Z,70.83
2019-01-11T00:46:32.982Z,71.03
2019-01-11T00:49:01.027Z,68.80
2019-01-11T00:51:28.906Z,63.50
2019-01-11T00:53:56.817Z,67.50
2019-01-11T00:56:24.827Z,65.90
2019-01-11T00:58:52.691Z,72.20
2019-01-11T01:01:20.566Z,68.70
2019-01-11T01:03:48.568Z,72.90
2019-01-11T01:06:16.447Z,70.87
2019-01-11T01:08:44.445Z,69.20
2019-01-11T01:11:12.402Z,72.03
2019-01-11T01:13:40.370Z,66.17
2019-01-11T01:16:08.334Z,66.97
2019-01-11T01:18:36.334Z,65.73
2019-01-11T01:21:04.291Z,69.07
2019-01-11T01:23:33.487Z,66.13
2019-01-11T01:26:01.439Z,68.10
2019-01-11T01:28:29.378Z,66.87
2019-01-11T01:30:57.387Z,69.87
2019-01-11T01:33:25.598Z,69.07
2019-01-11T01:35:53.615Z,68.80
2019-01-11T01:38:21.515Z,78.63
2019-01-11T01:40:49.478Z,72.47
2019-01-11T01:43:17.351Z,74.93
2019-01-11T01:45:45.372Z,74.63
2019-01-11T01:48:13.232Z,76.23
2019-01-11T01:50:41.320Z,71.10
2019-01-11T01:53:09.257Z,79.23
2019-01-11T01:55:38.003Z,76.00
2019-01-11T01:58:06.081Z,77.20
2019-01-11T02:00:34.695Z,85.13
2019-01-11T02:03:02.726Z,76.83
2019-01-11T02:05:31.596Z,80.90
2019-01-11T02:07:59.658Z,84.80
2019-01-11T02:10:27.611Z,83.07
2019-01-11T02:12:55.842Z,81.20
2019-01-11T02:15:24.321Z,70.17
2019-01-11T02:17:52.476Z,68.40
2019-01-11T02:20:26.789Z,67.47
2019-01-11T02:22:54.965Z,68.27
2019-01-11T02:25:24.273Z,65.17
2019-01-11T02:27:53.134Z,60.90
2019-01-11T02:30:24.261Z,68.93
2019-01-11T02:32:53.392Z,69.00
2019-01-11T02:35:21.734Z,65.70
2019-01-11T02:37:49.814Z,61.57
2019-01-11T02:40:19.416Z,77.53
2019-01-11T02:42:48.087Z,71.77
2019-01-11T02:45:19.777Z,80.57
2019-01-11T02:47:48.141Z,73.23
2019-01-11T02:50:16.447Z,77.30
2019-01-11T02:52:49.691Z,83.07
2019-01-11T02:55:18.521Z,74.33
2019-01-11T02:57:48.180Z,87.00
2019-01-11T03:00:18.951Z,81.20
2019-01-11T03:02:49.193Z,80.00
2019-01-11T03:05:18.448Z,88.37
2019-01-11T03:07:47.019Z,88.00
2019-01-11T03:10:18.310Z,92.13
2019-01-11T03:12:46.282Z,87.90
2019-01-11T03:15:15.294Z,95.80
2019-01-11T03:17:43.998Z,90.80
2019-01-11T03:20:13.818Z,98.50
2019-01-11T03:22:43.475Z,101.57
2019-01-11T03:25:12.582Z,98.10
2019-01-11T03:27:40.840Z,100.30
2019-01-11T03:30:13.451Z,93.87
2019-01-11T03:32:41.749Z,99.13
2019-01-11T03:35:17.453Z,108.20
2019-01-11T03:37:49.272Z,103.70
2019-01-11T03:40:22.950Z,98.93
2019-01-11T03:42:52.824Z,98.00
2019-01-11T03:45:25.651Z,105.40
2019-01-11T03:47:53.807Z,101.17
2019-01-11T03:50:27.277Z,99.90
2019-01-11T03:52:59.190Z,108.63
2019-01-11T03:55:27.263Z,122.57
2019-01-11T03:57:55.680Z,111.83
2019-01-11T04:00:24.452Z,111.00
2019-01-11T04:02:52.465Z,105.43
2019-01-11T04:05:20.599Z,113.37
2019-01-11T04:07:49.129Z,118.17
2019-01-11T04:10:20.180Z,116.47
2019-01-11T04:12:48.406Z,118.37
2019-01-11T04:15:17.527Z,119.53
2019-01-11T04:17:47.424Z,125.07
2019-01-11T04:20:19.202Z,125.13
2019-01-11T04:22:50.464Z,125.30
2019-01-11T04:25:20.308Z,126.00
2019-01-11T04:27:49.328Z,118.73
2019-01-11T04:30:19.940Z,133.57
2019-01-11T04:32:48.116Z,133.60
2019-01-11T04:35:16.093Z,127.27
2019-01-11T04:37:44.215Z,133.43
2019-01-11T04:40:14.422Z,130.67
2019-01-11T04:42:42.240Z,135.90
2019-01-11T04:45:10.813Z,123.47
2019-01-11T04:47:38.710Z,141.47
2019-01-11T04:50:09.530Z,131.80
2019-01-11T04:52:37.861Z,141.60
2019-01-11T04:55:06.711Z,136.13
2019-01-11T04:57:34.644Z,128.13
2019-01-11T05:00:05.100Z,130.17
2019-01-11T05:02:32.981Z,133.93
2019-01-11T05:05:00.877Z,131.97
2019-01-11T05:07:28.867Z,127.73
2019-01-11T05:09:56.897Z,127.60
2019-01-11T05:12:24.914Z,130.37
2019-01-11T05:14:52.960Z,125.93
2019-01-11T05:17:22.904Z,129.87
2019-01-11T05:19:50.887Z,128.33
2019-01-11T05:22:18.768Z,136.70
2019-01-11T05:24:46.796Z,130.17
2019-01-11T05:27:17.452Z,130.63
2019-01-11T05:29:45.231Z,134.97
2019-01-11T05:32:13.244Z,130.90
2019-01-11T05:34:41.180Z,126.33
2019-01-11T05:37:09.067Z,129.13
2019-01-11T05:39:37.095Z,129.17
2019-01-11T05:42:05.043Z,121.70
2019-01-11T05:44:33.070Z,112.43
2019-01-11T05:47:00.963Z,108.77
2019-01-11T05:49:29.044Z,88.33
2019-01-11T05:51:56.910Z,101.60
2019-01-11T05:54:25.015Z,102.67
2019-01-11T05:56:53.079Z,109.23
2019-01-11T05:59:21.289Z,101.70
2019-01-11T06:01:49.234Z,105.40
2019-01-11T06:04:39.714Z,103.60
2019-01-11T06:07:27.581Z,105.27
2019-01-11T06:09:55.539Z,107.47
2019-01-11T06:12:23.363Z,104.23
2019-01-11T06:14:51.234Z,110.03
2019-01-11T06:17:20.161Z,105.70
2019-01-11T06:19:48.150Z,108.00
2019-01-11T06:22:16.141Z,116.77
2019-01-11T06:24:44.216Z,111.50
2019-01-11T06:27:12.180Z,102.57
2019-01-11T06:29:41.008Z,99.40
2019-01-11T06:32:09.466Z,110.73
2019-01-11T06:34:43.355Z,103.37
2019-01-11T06:37:11.293Z,104.63
2019-01-11T06:39:39.709Z,101.87
2019-01-11T06:42:38.945Z,118.03
2019-01-11T06:45:08.477Z,113.27
2019-01-11T06:47:36.845Z,104.37
2019-01-11T06:50:08.976Z,111.70
2019-01-11T06:52:36.985Z,107.73
2019-01-11T06:55:07.959Z,103.47
2019-01-11T06:57:35.899Z,104.50
2019-01-11T07:00:08.579Z,95.67
2019-01-11T07:02:36.505Z,104.90
2019-01-11T07:05:06.201Z,100.87
2019-01-11T07:07:35.305Z,105.07
2019-01-11T07:10:06.199Z,92.43
2019-01-11T07:12:34.131Z,88.50
2019-01-11T07:15:01.998Z,92.03
2019-01-11T07:17:30.063Z,89.77
2019-01-11T07:20:05.360Z,96.97
2019-01-11T07:22:28.786Z,91.30
2019-01-11T07:24:56.815Z,96.77
2019-01-11T07:27:25.515Z,80.17
2019-01-11T07:29:53.344Z,92.97
2019-01-11T07:32:21.310Z,91.60
2019-01-11T07:34:49.304Z,83.20
2019-01-11T07:37:17.235Z,78.13
2019-01-11T07:39:45.178Z,92.97
2019-01-11T07:42:14.103Z,82.10
2019-01-11T07:44:42.058Z,89.23
2019-01-11T07:47:09.938Z,90.47
2019-01-11T07:49:37.796Z,91.90
2019-01-11T07:52:07.146Z,83.37
2019-01-11T07:54:35.327Z,92.20
2019-01-11T07:57:03.663Z,88.97
2019-01-11T07:59:31.786Z,93.07
2019-01-11T08:02:00.666Z,91.33
2019-01-11T08:04:28.560Z,89.73
2019-01-11T08:06:56.958Z,89.30
2019-01-11T08:09:24.878Z,89.57
2019-01-11T08:11:55.416Z,94.63
2019-01-11T08:14:23.504Z,87.43
2019-01-11T08:16:51.871Z,87.87
2019-01-11T08:19:20.086Z,79.50
2019-01-11T08:21:48.113Z,79.20
2019-01-11T08:24:17.318Z,81.00
2019-01-11T08:26:45.498Z,74.63
2019-01-11T08:29:13.529Z,68.23
2019-01-11T08:31:41.492Z,73.80
2019-01-11T08:34:09.331Z,63.50
2019-01-11T08:36:38.118Z,57.87
2019-01-11T08:39:08.729Z,71.33
2019-01-11T08:41:37.423Z,60.87
2019-01-11T08:44:06.250Z,53.57
2019-01-11T08:46:34.095Z,63.57
2019-01-11T08:49:02.063Z,61.47
2019-01-11T08:51:30.205Z,58.30
2019-01-11T08:53:58.099Z,43.20
2019-01-11T08:56:25.988Z,55.70
2019-01-11T08:58:53.886Z,48.77
2019-01-11T09:01:21.732Z,49.70
2019-01-11T09:03:49.570Z,33.67
2019-01-11T09:06:17.763Z,48.17
2019-01-11T09:08:46.111Z,51.03
2019-01-11T09:11:13.955Z,47.27
2019-01-11T09:13:45.863Z,36.37
2019-01-11T09:16:13.763Z,40.37
2019-01-11T09:19:00.636Z,40.70
2019-01-11T09:21:28.558Z,44.40
2019-01-11T09:23:56.460Z,46.63
2019-01-11T09:26:24.484Z,41.23
2019-01-11T09:28:52.320Z,39.20
2019-01-11T09:31:20.236Z,37.13
2019-01-11T09:33:48.199Z,40.63
2019-01-11T09:36:16.039Z,38.63
2019-01-11T09:38:43.864Z,36.90
2019-01-11T09:41:12.062Z,29.60
2019-01-11T09:43:40.351Z,26.33
2019-01-11T09:46:08.595Z,26.50
2019-01-11T09:48:36.660Z,21.43
2019-01-11T09:51:04.941Z,32.60
2019-01-11T09:53:32.750Z,27.90
2019-01-11T09:56:00.735Z,28.97
2019-01-11T09:58:28.562Z,24.40
2019-01-11T10:00:59.252Z,28.73
2019-01-11T10:03:26.382Z,25.07
2019-01-11T10:05:54.268Z,28.20
2019-01-11T10:08:22.329Z,35.53
2019-01-11T10:10:50.135Z,27.77
2019-01-11T10:13:18.101Z,25.87
2019-01-11T10:15:45.942Z,28.07
2019-01-11T10:18:13.815Z,22.00
2019-01-11T10:20:42.059Z,26.80
2019-01-11T10:23:10.043Z,21.23
2019-01-11T10:25:37.924Z,24.77
2019-01-11T10:28:05.908Z,18.60
2019-01-11T10:30:33.736Z,20.00
2019-01-11T10:33:01.807Z,21.67
2019-01-11T10:35:29.677Z,17.27
2019-01-11T10:37:57.629Z,17.83
2019-01-11T10:40:26.313Z,24.03
2019-01-11T10:42:54.251Z,21.07
2019-01-11T10:45:22.564Z,21.63
2019-01-11T10:47:52.697Z,16.87
2019-01-11T10:50:20.684Z,16.07
2019-01-11T10:52:51.610Z,21.17
2019-01-11T10:55:19.767Z,24.40
2019-01-11T10:57:48.383Z,22.20
2019-01-11T11:00:22.842Z,23.00
2019-01-11T11:02:51.268Z,15.97
2019-01-11T11:05:19.585Z,17.87
2019-01-11T11:07:47.444Z,17.40
2019-01-11T11:10:15.823Z,20.33
2019-01-11T11:12:44.271Z,15.47
2019-01-11T11:15:13.927Z,11.70
2019-01-11T11:17:42.238Z,13.43
2019-01-11T11:20:12.942Z,11.27
2019-01-11T11:22:40.906Z,12.50
2019-01-11T11:25:13.076Z,8.40
2019-01-11T11:27:41.076Z,8.20
2019-01-11T11:30:12.014Z,8.13
2019-01-11T11:32:55.238Z,12.80
2019-01-11T11:35:24.448Z,10.07
2019-01-11T11:37:52.419Z,4.07
2019-01-11T11:40:20.456Z,6.70
2019-01-11T11:42:49.217Z,9.00
2019-01-11T11:45:18.479Z,5.20
2019-01-11T11:47:46.503Z,8.03
2019-01-11T11:50:14.327Z,5.33
2019-01-11T11:52:42.168Z,7.47
2019-01-11T11:55:10.513Z,4.53
2019-01-11T11:57:38.524Z,7.70
2019-01-11T12:00:10.338Z,6.30
2019-01-11T12:02:38.247Z,8.20
2019-01-11T12:05:07.220Z,11.97
2019-01-11T12:07:35.896Z,6.03
2019-01-11T12:10:04.599Z,11.43
2019-01-11T12:12:32.530Z,5.20
2019-01-11T12:15:00.382Z,5.57
2019-01-11T12:17:28.715Z,6.63
2019-01-11T12:19:57.194Z,8.27
2019-01-11T12:22:25.151Z,7.70
2019-01-11T12:24:53.340Z,5.83
2019-01-11T12:27:21.415Z,9.80
2019-01-11T12:29:49.255Z,6.90
2019-01-11T12:32:19.671Z,7.33
2019-01-11T12:34:46.958Z,6.13
2019-01-11T12:37:14.981Z,10.93
2019-01-11T12:39:42.834Z,6.53
2019-01-11T12:42:13.303Z,4.60
2019-01-11T12:44:40.749Z,7.50
2019-01-11T12:47:08.591Z,6.53
2019-01-11T12:49:36.454Z,7.33
2019-01-11T12:52:04.487Z,8.33
2019-01-11T12:54:32.358Z,11.00
2019-01-11T12:57:00.327Z,10.50
2019-01-11T12:59:28.278Z,12.40
2019-01-11T13:01:57.812Z,8.43
2019-01-11T13:04:25.686Z,9.20
2019-01-11T13:06:53.682Z,8.37
2019-01-11T13:09:21.738Z,12.10
2019-01-11T13:11:49.565Z,12.23
2019-01-11T13:14:17.545Z,9.30
2019-01-11T13:16:45.465Z,9.67
2019-01-11T13:19:13.382Z,8.67
2019-01-11T13:21:41.511Z,15.37
2019-01-11T13:24:09.426Z,7.07
2019-01-11T13:26:37.412Z,12.67
2019-01-11T13:29:05.379Z,7.30
2019-01-11T13:31:33.243Z,9.43
2019-01-11T13:34:01.092Z,14.13
2019-01-11T13:36:29.917Z,10.13
2019-01-11T13:38:57.992Z,8.20
2019-01-11T13:41:29.450Z,15.00
2019-01-11T13:43:58.743Z,8.63
2019-01-11T13:46:27.106Z,13.00
2019-01-11T13:48:55.505Z,10.30
2019-01-11T13:51:23.491Z,10.20
2019-01-11T13:53:51.986Z,15.53
2019-01-11T13:56:20.060Z,9.70
2019-01-11T13:58:48.110Z,7.33
2019-01-11T14:01:16.080Z,9.33
2019-01-11T14:03:43.947Z,21.70
2019-01-11T14:06:11.953Z,10.30
2019-01-11T14:08:39.761Z,7.43
2019-01-11T14:11:07.884Z,9.87
2019-01-11T14:13:36.163Z,6.83
2019-01-11T14:16:06.312Z,5.00
2019-01-11T14:18:34.325Z,10.53
2019-01-11T14:21:02.415Z,8.50
2019-01-11T14:23:30.753Z,7.90
2019-01-11T14:26:01.114Z,8.27
2019-01-11T14:28:29.167Z,10.03
2019-01-11T14:30:59.949Z,6.30
2019-01-11T14:33:27.879Z,10.13
2019-01-11T14:35:55.791Z,6.50
2019-01-11T14:38:24.298Z,6.47
2019-01-11T14:40:52.616Z,6.30
2019-01-11T14:43:20.564Z,4.63
2019-01-11T14:45:48.686Z,5.03
2019-01-11T14:48:16.687Z,3.70
2019-01-11T14:50:44.631Z,4.93
2019-01-11T14:53:12.456Z,4.43
2019-01-11T14:55:40.444Z,5.77
2019-01-11T14:58:08.349Z,5.90
2019-01-11T15:00:36.371Z,7.00
2019-01-11T15:03:04.442Z,4.17
2019-01-11T15:05:34.207Z,5.13
2019-01-11T15:08:02.167Z,8.70
2019-01-11T15:10:33.222Z,6.17
2019-01-11T15:13:01.196Z,4.93
2019-01-11T15:15:29.050Z,5.47
2019-01-11T15:17:56.991Z,8.90
2019-01-11T15:20:25.015Z,7.60
2019-01-11T15:22:53.003Z,4.33
2019-01-11T15:25:23.101Z,8.43
2019-01-11T15:27:51.630Z,6.80
2019-01-11T15:30:20.554Z,7.07
2019-01-11T15:32:48.632Z,6.23
2019-01-11T15:35:17.525Z,5.40
2019-01-11T15:37:45.881Z,6.57
2019-01-11T15:40:21.802Z,3.90
2019-01-11T15:42:50.365Z,5.80
2019-01-11T15:45:18.499Z,9.70
2019-01-11T15:47:46.616Z,8.23
2019-01-11T15:51:00.992Z,5.40
2019-01-11T15:53:36.844Z,3.50
2019-01-11T15:56:08.212Z,8.00
2019-01-11T15:58:36.034Z,6.80
2019-01-11T16:01:05.313Z,8.50
2019-01-11T16:03:33.347Z,5.67
2019-01-11T16:06:37.513Z,8.77
2019-01-11T16:10:08.729Z,7.53
2019-01-11T16:13:34.700Z,7.00
2019-01-11T16:16:32.963Z,10.40
2019-01-11T16:19:00.996Z,13.70
2019-01-11T16:21:29.506Z,5.70
2019-01-11T16:23:57.454Z,8.10
2019-01-11T16:26:25.564Z,10.20
2019-01-11T16:28:55.966Z,8.37
2019-01-11T16:31:25.091Z,9.17
2019-01-11T16:33:54.809Z,12.67
2019-01-11T16:36:24.695Z,5.90
2019-01-11T16:38:52.773Z,8.87
2019-01-11T16:41:20.653Z,7.03
2019-01-11T16:43:48.690Z,9.73
2019-01-11T16:46:16.611Z,7.37
2019-01-11T16:48:44.689Z,10.23
2019-01-11T16:51:12.831Z,9.80
2019-01-11T16:53:41.117Z,10.97
2019-01-11T16:56:13.793Z,9.93
2019-01-11T16:58:41.832Z,12.13
2019-01-11T17:01:09.892Z,11.60
2019-01-11T17:03:38.266Z,15.13
2019-01-11T17:06:09.282Z,9.10
2019-01-11T17:08:37.882Z,12.73
2019-01-11T17:11:05.894Z,11.77
2019-01-11T17:13:40.379Z,9.90
2019-01-11T17:16:06.554Z,11.97
2019-01-11T17:18:34.544Z,12.67
2019-01-11T17:21:02.449Z,10.70
2019-01-11T17:23:30.734Z,13.67
2019-01-11T17:25:59.100Z,15.50
2019-01-11T17:28:26.951Z,15.27
2019-01-11T17:30:55.277Z,16.27
2019-01-11T17:33:26.223Z,16.40
2019-01-11T17:35:57.446Z,11.13
2019-01-11T17:38:27.114Z,14.63
2019-01-11T17:40:55.636Z,9.80
2019-01-11T17:43:25.093Z,6.70
2019-01-11T17:45:53.214Z,9.47
2019-01-11T17:48:22.016Z,13.87
2019-01-11T17:50:53.203Z,6.87
2019-01-11T17:53:21.496Z,6.53
2019-01-11T17:55:49.968Z,10.60
2019-01-11T17:58:18.643Z,11.60
2019-01-11T18:00:48.026Z,11.10
2019-01-11T18:03:16.018Z,12.90
2019-01-11T18:05:45.164Z,11.03
2019-01-11T18:08:13.053Z,10.83
2019-01-11T18:10:40.993Z,9.57
2019-01-11T18:13:09.135Z,11.13
2019-01-11T18:15:37.223Z,14.50
2019-01-11T18:18:05.016Z,9.17
2019-01-11T18:20:36.076Z,10.33
2019-01-11T18:23:07.106Z,8.17
2019-01-11T18:25:34.411Z,11.43
2019-01-11T18:28:02.372Z,9.77
2019-01-11T18:30:30.326Z,9.67
2019-01-11T18:32:58.293Z,8.00
2019-01-11T18:35:26.183Z,9.87
2019-01-11T18:37:54.537Z,10.13
2019-01-11T18:40:25.171Z,8.87
2019-01-11T18:42:53.593Z,6.80
2019-01-11T18:45:28.891Z,8.13
2019-01-11T18:47:56.173Z,5.60
2019-01-11T18:50:27.006Z,8.70
2019-01-11T18:52:57.603Z,5.97
2019-01-11T18:55:26.395Z,10.03
2019-01-11T18:57:54.459Z,7.90
2019-01-11T19:00:23.369Z,11.17
2019-01-11T19:02:51.341Z,11.93
2019-01-11T19:05:21.298Z,12.73
2019-01-11T19:07:49.267Z,7.50
2019-01-11T19:10:19.600Z,9.67
2019-01-11T19:12:47.933Z,11.80
2019-01-11T19:15:19.537Z,10.60
2019-01-11T19:17:47.506Z,10.03
2019-01-11T19:20:23.349Z,7.37
2019-01-11T19:22:51.379Z,12.90
2019-01-11T19:25:19.986Z,11.30
2019-01-11T19:27:48.883Z,10.07
2019-01-11T19:30:20.100Z,6.00
2019-01-11T19:32:48.790Z,10.43
2019-01-11T19:35:17.229Z,11.33
2019-01-11T19:37:45.110Z,8.40
2019-01-11T19:40:19.371Z,14.60
2019-01-11T19:42:47.712Z,7.43
2019-01-11T19:45:17.207Z,13.57
2019-01-11T19:47:48.249Z,13.00
2019-01-11T19:50:19.322Z,8.33
2019-01-11T19:52:47.729Z,6.87
2019-01-11T19:55:16.152Z,5.60
2019-01-11T19:57:45.662Z,4.40
2019-01-11T20:00:18.148Z,5.47
2019-01-11T20:02:46.547Z,4.57
2019-01-11T20:05:14.980Z,7.83
2019-01-11T20:07:42.844Z,10.17
2019-01-11T20:10:18.555Z,4.07
2019-01-11T20:12:46.498Z,4.17
2019-01-11T20:15:17.104Z,5.20
2019-01-11T20:17:47.518Z,5.20
2019-01-11T20:20:15.642Z,3.90
2019-01-11T20:22:43.619Z,4.87
2019-01-11T20:25:14.994Z,11.13
2019-01-11T20:27:47.674Z,4.03
2019-01-11T20:30:19.044Z,5.50
2019-01-11T20:32:47.721Z,4.00
2019-01-11T20:35:15.781Z,9.30
2019-01-11T20:37:44.686Z,6.00
2019-01-11T20:40:14.275Z,3.53
2019-01-11T20:42:42.479Z,5.33
2019-01-11T20:45:16.342Z,5.30
2019-01-11T20:47:44.717Z,6.53
2019-01-11T20:50:16.367Z,7.67
2019-01-11T20:52:44.297Z,6.10
2019-01-11T20:55:12.424Z,8.17
2019-01-11T20:57:40.474Z,7.40
2019-01-11T21:00:20.594Z,8.83
2019-01-11T21:02:48.473Z,5.30
2019-01-11T21:05:16.767Z,9.90
2019-01-11T21:07:44.740Z,7.47
2019-01-11T21:10:13.554Z,8.10
2019-01-11T21:12:41.950Z,6.27
2019-01-11T21:15:11.226Z,6.37
2019-01-11T21:17:43.395Z,5.30
2019-01-11T21:20:13.933Z,7.50
2019-01-11T21:22:42.059Z,7.70
2019-01-11T21:25:11.797Z,9.60
2019-01-11T21:27:39.732Z,5.47
2019-01-11T21:30:15.861Z,7.00
2019-01-11T21:32:44.035Z,5.27
2019-01-11T21:35:12.142Z,11.33
2019-01-11T21:37:40.016Z,3.70
2019-01-11T21:40:11.766Z,5.97
2019-01-11T21:42:39.747Z,5.40
2019-01-11T21:45:10.981Z,9.00
2019-01-11T21:47:39.556Z,6.93
2019-01-11T21:50:12.236Z,4.43
2019-01-11T21:52:40.053Z,5.57
2019-01-11T21:55:08.688Z,8.63
2019-01-11T21:57:36.729Z,8.30
2019-01-11T22:00:11.736Z,4.30
2019-01-11T22:02:39.747Z,4.47
2019-01-11T22:05:07.739Z,5.23
2019-01-11T22:07:35.538Z,5.97
2019-01-11T22:10:05.734Z,5.90
2019-01-11T22:12:33.651Z,4.67
2019-01-11T22:15:03.650Z,7.47
2019-01-11T22:17:31.837Z,4.70
2019-01-11T22:19:59.865Z,4.17
2019-01-11T22:22:27.974Z,4.53
2019-01-11T22:24:55.966Z,4.57
2019-01-11T22:27:25.593Z,5.10
2019-01-11T22:29:53.716Z,5.03
2019-01-11T22:32:21.655Z,6.60
2019-01-11T22:34:49.678Z,3.60
2019-01-11T22:37:17.665Z,5.60
2019-01-11T22:39:45.644Z,2.97
2019-01-11T22:42:14.351Z,6.00
2019-01-11T22:44:42.232Z,3.90
2019-01-11T22:47:10.175Z,5.13
2019-01-11T22:49:38.599Z,8.73
2019-01-11T22:52:06.510Z,5.27
2019-01-11T22:54:39.535Z,4.53
2019-01-11T22:57:07.328Z,3.73
2019-01-11T22:59:35.379Z,6.97
2019-01-11T23:02:43.824Z,7.13
2019-01-11T23:05:20.464Z,4.50
2019-01-11T23:07:56.914Z,4.70
2019-01-11T23:11:55.502Z,5.50
2019-01-11T23:14:23.566Z,3.87
2019-01-11T23:17:38.569Z,9.17
2019-01-11T23:20:13.771Z,8.23
2019-01-11T23:22:45.144Z,4.80
2019-01-11T23:25:13.216Z,4.33
2019-01-11T23:27:41.148Z,4.50
2019-01-11T23:30:14.256Z,2.53
2019-01-11T23:32:43.824Z,1.80
2019-01-11T23:35:11.669Z,5.10
2019-01-11T23:37:39.685Z,6.10
2019-01-11T23:40:10.919Z,3.13
2019-01-11T23:42:45.147Z,5.20
2019-01-11T23:45:13.181Z,7.03
2019-01-11T23:47:41.203Z,4.07
2019-01-11T23:50:13.409Z,3.70
2019-01-11T23:52:41.418Z,2.23
2019-01-11T23:55:09.667Z,3.90
2019-01-11T23:57:37.685Z,2.90
